sensor_id;sensor_type;location;lat;lon;timestamp;pressure;altitude;pressure_sealevel;temperature
37452;BMP280;23314;51.114;6.900;2022-12-07T00:01:08;101416.13;;;7.09
37452;BMP280;23314;51.114;6.900;2022-12-07T00:03:35;101405.06;;;7.03
37452;BMP280;23314;51.114;6.900;2022-12-07T00:06:01;101413.38;;;7.02
37452;BMP280;23314;51.114;6.900;2022-12-07T00:08:27;101405.41;;;7.02
37452;BMP280;23314;51.114;6.900;2022-12-07T00:10:53;101410.31;;;7.00
37452;BMP280;23314;51.114;6.900;2022-12-07T00:13:18;101403.81;;;6.97
37452;BMP280;23314;51.114;6.900;2022-12-07T00:15:44;101401.94;;;6.98
37452;BMP280;23314;51.114;6.900;2022-12-07T00:18:09;101399.66;;;6.96
37452;BMP280;23314;51.114;6.900;2022-12-07T00:20:35;101401.19;;;6.97
37452;BMP280;23314;51.114;6.900;2022-12-07T00:23:00;101401.56;;;6.96
37452;BMP280;23314;51.114;6.900;2022-12-07T00:25:25;101400.03;;;6.95
37452;BMP280;23314;51.114;6.900;2022-12-07T00:27:54;101405.34;;;6.95
37452;BMP280;23314;51.114;6.900;2022-12-07T00:30:23;101400.03;;;6.95
37452;BMP280;23314;51.114;6.900;2022-12-07T00:32:48;101390.88;;;6.92
37452;BMP280;23314;51.114;6.900;2022-12-07T00:35:14;101397.72;;;6.93
37452;BMP280;23314;51.114;6.900;2022-12-07T00:37:39;101393.91;;;6.90
37452;BMP280;23314;51.114;6.900;2022-12-07T00:40:05;101403.41;;;6.91
37452;BMP280;23314;51.114;6.900;2022-12-07T00:42:31;101401.16;;;6.93
37452;BMP280;23314;51.114;6.900;2022-12-07T00:44:56;101399.63;;;6.92
37452;BMP280;23314;51.114;6.900;2022-12-07T00:47:21;101401.91;;;6.94
37452;BMP280;23314;51.114;6.900;2022-12-07T00:49:47;101396.19;;;6.92
37452;BMP280;23314;51.114;6.900;2022-12-07T00:52:12;101392.78;;;6.91
37452;BMP280;23314;51.114;6.900;2022-12-07T00:54:37;101401.50;;;6.92
37452;BMP280;23314;51.114;6.900;2022-12-07T00:57:03;101390.06;;;6.88
37452;BMP280;23314;51.114;6.900;2022-12-07T00:59:28;101384.75;;;6.88
37452;BMP280;23314;51.114;6.900;2022-12-07T01:01:53;101392.28;;;6.86
37452;BMP280;23314;51.114;6.900;2022-12-07T01:04:18;101382.47;;;6.86
37452;BMP280;23314;51.114;6.900;2022-12-07T01:06:44;101378.31;;;6.89
37452;BMP280;23314;51.114;6.900;2022-12-07T01:09:09;101393.91;;;6.90
37452;BMP280;23314;51.114;6.900;2022-12-07T01:11:34;101382.88;;;6.88
37452;BMP280;23314;51.114;6.900;2022-12-07T01:14:00;101378.69;;;6.87
37452;BMP280;23314;51.114;6.900;2022-12-07T01:16:28;101385.53;;;6.88
37452;BMP280;23314;51.114;6.900;2022-12-07T01:18:55;101385.16;;;6.90
37452;BMP280;23314;51.114;6.900;2022-12-07T01:21:32;101389.34;;;6.91
37452;BMP280;23314;51.114;6.900;2022-12-07T01:24:00;101387.47;;;6.91
37452;BMP280;23314;51.114;6.900;2022-12-07T01:26:26;101385.16;;;6.90
37452;BMP280;23314;51.114;6.900;2022-12-07T01:28:51;101380.97;;;6.89
37452;BMP280;23314;51.114;6.900;2022-12-07T01:31:21;101385.88;;;6.87
37452;BMP280;23314;51.114;6.900;2022-12-07T01:33:50;101394.19;;;6.85
37452;BMP280;23314;51.114;6.900;2022-12-07T01:36:18;101382.06;;;6.84
37452;BMP280;23314;51.114;6.900;2022-12-07T01:38:44;101391.91;;;6.84
37452;BMP280;23314;51.114;6.900;2022-12-07T01:41:11;101391.13;;;6.83
37452;BMP280;23314;51.114;6.900;2022-12-07T01:46:31;101390.00;;;6.84
37452;BMP280;23314;51.114;6.900;2022-12-07T01:48:56;101388.13;;;6.85
37452;BMP280;23314;51.114;6.900;2022-12-07T01:51:21;101384.34;;;6.86
37452;BMP280;23314;51.114;6.900;2022-12-07T01:53:47;101377.53;;;6.85
37452;BMP280;23314;51.114;6.900;2022-12-07T01:56:17;101376.78;;;6.88
37452;BMP280;23314;51.114;6.900;2022-12-07T01:58:44;101374.16;;;6.88
37452;BMP280;23314;51.114;6.900;2022-12-07T02:01:10;101376.47;;;6.89
37452;BMP280;23314;51.114;6.900;2022-12-07T02:03:38;101371.91;;;6.90
37452;BMP280;23314;51.114;6.900;2022-12-07T02:06:04;101369.25;;;6.90
37452;BMP280;23314;51.114;6.900;2022-12-07T02:08:31;101367.72;;;6.89
37452;BMP280;23314;51.114;6.900;2022-12-07T02:10:57;101368.41;;;6.86
37452;BMP280;23314;51.114;6.900;2022-12-07T02:13:24;101369.56;;;6.85
37452;BMP280;23314;51.114;6.900;2022-12-07T02:18:59;101372.94;;;6.82
37452;BMP280;23314;51.114;6.900;2022-12-07T02:24:16;101366.13;;;6.81
37452;BMP280;23314;51.114;6.900;2022-12-07T02:27:07;101358.91;;;6.81
37452;BMP280;23314;51.114;6.900;2022-12-07T02:29:40;101364.22;;;6.81
37452;BMP280;23314;51.114;6.900;2022-12-07T02:32:21;101365.34;;;6.80
37452;BMP280;23314;51.114;6.900;2022-12-07T02:35:10;101362.25;;;6.78
37452;BMP280;23314;51.114;6.900;2022-12-07T02:40:12;101371.75;;;6.79
37452;BMP280;23314;51.114;6.900;2022-12-07T02:42:43;101364.16;;;6.77
37452;BMP280;23314;51.114;6.900;2022-12-07T02:45:13;101369.47;;;6.77
37452;BMP280;23314;51.114;6.900;2022-12-07T02:47:41;101371.75;;;6.79
37452;BMP280;23314;51.114;6.900;2022-12-07T02:50:07;101361.84;;;6.76
37452;BMP280;23314;51.114;6.900;2022-12-07T02:52:32;101360.72;;;6.77
37452;BMP280;23314;51.114;6.900;2022-12-07T02:54:58;101359.19;;;6.76
37452;BMP280;23314;51.114;6.900;2022-12-07T02:57:51;101364.09;;;6.74
37452;BMP280;23314;51.114;6.900;2022-12-07T03:00:20;101354.63;;;6.73
37452;BMP280;23314;51.114;6.900;2022-12-07T03:03:11;101358.72;;;6.70
37452;BMP280;23314;51.114;6.900;2022-12-07T03:11:07;101363.69;;;6.72
37452;BMP280;23314;51.114;6.900;2022-12-07T03:13:55;101367.88;;;6.73
37452;BMP280;23314;51.114;6.900;2022-12-07T03:16:33;101370.53;;;6.73
37452;BMP280;23314;51.114;6.900;2022-12-07T03:19:09;101368.63;;;6.73
37452;BMP280;23314;51.114;6.900;2022-12-07T03:21:56;101376.97;;;6.72
37452;BMP280;23314;51.114;6.900;2022-12-07T03:24:26;101372.41;;;6.72
37452;BMP280;23314;51.114;6.900;2022-12-07T03:26:56;101364.09;;;6.74
37452;BMP280;23314;51.114;6.900;2022-12-07T03:29:30;101370.59;;;6.76
37452;BMP280;23314;51.114;6.900;2022-12-07T03:32:05;101366.03;;;6.77
37452;BMP280;23314;51.114;6.900;2022-12-07T03:34:42;101370.22;;;6.78
37452;BMP280;23314;51.114;6.900;2022-12-07T03:37:17;101368.69;;;6.77
37452;BMP280;23314;51.114;6.900;2022-12-07T03:40:02;101367.94;;;6.76
37452;BMP280;23314;51.114;6.900;2022-12-07T03:42:30;101363.75;;;6.75
37452;BMP280;23314;51.114;6.900;2022-12-07T03:44:56;101370.94;;;6.75
37452;BMP280;23314;51.114;6.900;2022-12-07T03:47:32;101369.47;;;6.77
37452;BMP280;23314;51.114;6.900;2022-12-07T03:52:54;101370.59;;;6.76
37452;BMP280;23314;51.114;6.900;2022-12-07T03:55:29;101369.06;;;6.75
37452;BMP280;23314;51.114;6.900;2022-12-07T03:57:59;101361.81;;;6.72
37452;BMP280;23314;51.114;6.900;2022-12-07T04:00:25;101365.25;;;6.73
37452;BMP280;23314;51.114;6.900;2022-12-07T04:02:52;101367.53;;;6.74
37452;BMP280;23314;51.114;6.900;2022-12-07T04:05:18;101356.13;;;6.74
37452;BMP280;23314;51.114;6.900;2022-12-07T04:07:43;101369.75;;;6.72
37452;BMP280;23314;51.114;6.900;2022-12-07T04:10:09;101362.53;;;6.69
37452;BMP280;23314;51.114;6.900;2022-12-07T04:12:34;101359.47;;;6.67
37452;BMP280;23314;51.114;6.900;2022-12-07T04:15:00;101357.94;;;6.66
37452;BMP280;23314;51.114;6.900;2022-12-07T04:17:25;101359.06;;;6.65
37452;BMP280;23314;51.114;6.900;2022-12-07T04:19:50;101357.88;;;6.63
37452;BMP280;23314;51.114;6.900;2022-12-07T04:22:16;101364.66;;;6.60
37452;BMP280;23314;51.114;6.900;2022-12-07T04:24:41;101372.25;;;6.61
37452;BMP280;23314;51.114;6.900;2022-12-07T04:27:06;101362.78;;;6.60
37452;BMP280;23314;51.114;6.900;2022-12-07T04:29:32;101367.31;;;6.60
37452;BMP280;23314;51.114;6.900;2022-12-07T04:31:57;101362.72;;;6.57
37452;BMP280;23314;51.114;6.900;2022-12-07T04:34:22;101361.97;;;6.56
37452;BMP280;23314;51.114;6.900;2022-12-07T04:36:48;101355.19;;;6.59
37452;BMP280;23314;51.114;6.900;2022-12-07T04:39:22;101357.84;;;6.59
37452;BMP280;23314;51.114;6.900;2022-12-07T04:41:48;101365.41;;;6.60
37452;BMP280;23314;51.114;6.900;2022-12-07T04:44:14;101358.25;;;6.61
37452;BMP280;23314;51.114;6.900;2022-12-07T04:46:40;101355.22;;;6.63
37452;BMP280;23314;51.114;6.900;2022-12-07T04:49:06;101350.69;;;6.63
37452;BMP280;23314;51.114;6.900;2022-12-07T04:51:31;101353.41;;;6.67
37452;BMP280;23314;51.114;6.900;2022-12-07T04:53:57;101352.63;;;6.66
37452;BMP280;23314;51.114;6.900;2022-12-07T04:56:22;101340.91;;;6.67
37452;BMP280;23314;51.114;6.900;2022-12-07T04:58:48;101348.09;;;6.67
37452;BMP280;23314;51.114;6.900;2022-12-07T05:01:15;101343.16;;;6.65
37452;BMP280;23314;51.114;6.900;2022-12-07T05:03:41;101347.28;;;6.63
37452;BMP280;23314;51.114;6.900;2022-12-07T05:06:07;101347.66;;;6.61
37452;BMP280;23314;51.114;6.900;2022-12-07T05:08:33;101357.47;;;6.60
37452;BMP280;23314;51.114;6.900;2022-12-07T05:11:00;101348.34;;;6.58
37452;BMP280;23314;51.114;6.900;2022-12-07T05:13:25;101359.69;;;6.58
37452;BMP280;23314;51.114;6.900;2022-12-07T05:15:51;101352.47;;;6.55
37452;BMP280;23314;51.114;6.900;2022-12-07T05:18:16;101347.53;;;6.54
37452;BMP280;23314;51.114;6.900;2022-12-07T05:20:42;101344.81;;;6.50
37452;BMP280;23314;51.114;6.900;2022-12-07T05:23:07;101342.09;;;6.46
37452;BMP280;23314;51.114;6.900;2022-12-07T05:25:33;101348.84;;;6.40
37452;BMP280;23314;51.114;6.900;2022-12-07T05:27:58;101347.59;;;6.34
37452;BMP280;23314;51.114;6.900;2022-12-07T05:30:24;101347.53;;;6.30
37452;BMP280;23314;51.114;6.900;2022-12-07T05:32:50;101359.63;;;6.28
37452;BMP280;23314;51.114;6.900;2022-12-07T05:35:16;101358.84;;;6.27
37452;BMP280;23314;51.114;6.900;2022-12-07T05:37:42;101353.16;;;6.25
37452;BMP280;23314;51.114;6.900;2022-12-07T05:40:08;101356.56;;;6.26
37452;BMP280;23314;51.114;6.900;2022-12-07T05:42:34;101354.63;;;6.23
37452;BMP280;23314;51.114;6.900;2022-12-07T05:44:59;101357.25;;;6.23
37452;BMP280;23314;51.114;6.900;2022-12-07T05:47:24;101343.97;;;6.19
37452;BMP280;23314;51.114;6.900;2022-12-07T05:49:50;101354.44;;;6.12
37452;BMP280;23314;51.114;6.900;2022-12-07T05:52:15;101353.97;;;6.06
37452;BMP280;23314;51.114;6.900;2022-12-07T05:54:41;101349.28;;;5.99
37452;BMP280;23314;51.114;6.900;2022-12-07T05:57:06;101342.06;;;5.96
37452;BMP280;23314;51.114;6.900;2022-12-07T05:59:31;101345.06;;;5.95
37452;BMP280;23314;51.114;6.900;2022-12-07T06:01:59;101343.94;;;5.96
37452;BMP280;23314;51.114;6.900;2022-12-07T06:04:26;101342.06;;;5.96
37452;BMP280;23314;51.114;6.900;2022-12-07T06:06:52;101336.41;;;5.98
37452;BMP280;23314;51.114;6.900;2022-12-07T06:09:18;101345.91;;;5.99
37452;BMP280;23314;51.114;6.900;2022-12-07T06:11:43;101355.34;;;6.00
37452;BMP280;23314;51.114;6.900;2022-12-07T06:14:27;101346.72;;;6.03
37452;BMP280;23314;51.114;6.900;2022-12-07T06:16:53;101346.44;;;6.08
37452;BMP280;23314;51.114;6.900;2022-12-07T06:19:18;101355.22;;;6.12
37452;BMP280;23314;51.114;6.900;2022-12-07T06:21:43;101358.31;;;6.18
37452;BMP280;23314;51.114;6.900;2022-12-07T06:24:11;101356.09;;;6.20
37452;BMP280;23314;51.114;6.900;2022-12-07T06:26:38;101356.50;;;6.22
37452;BMP280;23314;51.114;6.900;2022-12-07T06:29:04;101354.28;;;6.24
37452;BMP280;23314;51.114;6.900;2022-12-07T06:31:29;101359.22;;;6.26
37452;BMP280;23314;51.114;6.900;2022-12-07T06:33:59;101361.13;;;6.29
37452;BMP280;23314;51.114;6.900;2022-12-07T06:36:24;101352.81;;;6.30
37452;BMP280;23314;51.114;6.900;2022-12-07T06:38:50;101357.72;;;6.28
37452;BMP280;23314;51.114;6.900;2022-12-07T06:41:15;101343.25;;;6.22
37452;BMP280;23314;51.114;6.900;2022-12-07T06:43:40;101357.13;;;6.15
37452;BMP280;23314;51.114;6.900;2022-12-07T06:46:07;101343.84;;;6.12
37452;BMP280;23314;51.114;6.900;2022-12-07T06:48:32;101351.63;;;6.24
37452;BMP280;23314;51.114;6.900;2022-12-07T06:50:58;101358.13;;;6.30
37452;BMP280;23314;51.114;6.900;2022-12-07T06:53:23;101367.53;;;6.24
37452;BMP280;23314;51.114;6.900;2022-12-07T06:55:49;101370.19;;;6.24
37452;BMP280;23314;51.114;6.900;2022-12-07T06:58:14;101371.63;;;6.22
37452;BMP280;23314;51.114;6.900;2022-12-07T07:00:40;101375.81;;;6.23
37452;BMP280;23314;51.114;6.900;2022-12-07T07:03:05;101372.03;;;6.24
37452;BMP280;23314;51.114;6.900;2022-12-07T07:05:31;101365.25;;;6.26
37452;BMP280;23314;51.114;6.900;2022-12-07T07:07:56;101361.09;;;6.25
37452;BMP280;23314;51.114;6.900;2022-12-07T07:10:21;101359.63;;;6.28
37452;BMP280;23314;51.114;6.900;2022-12-07T07:12:47;101365.31;;;6.30
37452;BMP280;23314;51.114;6.900;2022-12-07T07:15:12;101361.56;;;6.31
37452;BMP280;23314;51.114;6.900;2022-12-07T07:17:37;101365.38;;;6.34
37452;BMP280;23314;51.114;6.900;2022-12-07T07:20:03;101355.91;;;6.33
37452;BMP280;23314;51.114;6.900;2022-12-07T07:22:29;101356.31;;;6.35
37452;BMP280;23314;51.114;6.900;2022-12-07T07:24:54;101359.38;;;6.37
37452;BMP280;23314;51.114;6.900;2022-12-07T07:27:19;101361.28;;;6.36
37452;BMP280;23314;51.114;6.900;2022-12-07T07:29:45;101361.97;;;6.33
37452;BMP280;23314;51.114;6.900;2022-12-07T07:32:10;101368.19;;;6.44
37452;BMP280;23314;51.114;6.900;2022-12-07T07:34:35;101359.25;;;6.53
37452;BMP280;23314;51.114;6.900;2022-12-07T07:37:00;101365.47;;;6.64
37452;BMP280;23314;51.114;6.900;2022-12-07T07:39:26;101364.34;;;6.65
37452;BMP280;23314;51.114;6.900;2022-12-07T07:41:51;101366.09;;;6.54
37452;BMP280;23314;51.114;6.900;2022-12-07T07:44:16;101366.66;;;6.43
37452;BMP280;23314;51.114;6.900;2022-12-07T07:46:42;101364.63;;;6.56
37452;BMP280;23314;51.114;6.900;2022-12-07T07:49:09;101377.16;;;6.59
37452;BMP280;23314;51.114;6.900;2022-12-07T07:51:35;101366.44;;;6.52
37452;BMP280;23314;51.114;6.900;2022-12-07T07:54:00;101368.28;;;6.48
37452;BMP280;23314;51.114;6.900;2022-12-07T07:56:25;101378.09;;;6.48
37452;BMP280;23314;51.114;6.900;2022-12-07T07:58:54;101371.81;;;6.56
37452;BMP280;23314;51.114;6.900;2022-12-07T08:01:19;101376.84;;;6.65
37452;BMP280;23314;51.114;6.900;2022-12-07T08:03:46;101371.41;;;6.81
37452;BMP280;23314;51.114;6.900;2022-12-07T08:06:11;101378.19;;;6.78
37452;BMP280;23314;51.114;6.900;2022-12-07T08:08:36;101373.91;;;6.70
37452;BMP280;23314;51.114;6.900;2022-12-07T08:11:08;101374.53;;;6.63
37452;BMP280;23314;51.114;6.900;2022-12-07T08:13:33;101381.22;;;6.53
37452;BMP280;23314;51.114;6.900;2022-12-07T08:16:03;101381.09;;;6.46
37452;BMP280;23314;51.114;6.900;2022-12-07T08:18:29;101384.41;;;6.39
37452;BMP280;23314;51.114;6.900;2022-12-07T08:20:59;101388.91;;;6.35
37452;BMP280;23314;51.114;6.900;2022-12-07T08:23:26;101389.94;;;6.54
37452;BMP280;23314;51.114;6.900;2022-12-07T08:25:51;101392.28;;;6.59
37452;BMP280;23314;51.114;6.900;2022-12-07T08:28:17;101397.53;;;6.55
37452;BMP280;23314;51.114;6.900;2022-12-07T08:30:43;101398.88;;;6.45
37452;BMP280;23314;51.114;6.900;2022-12-07T08:33:09;101401.38;;;6.35
37452;BMP280;23314;51.114;6.900;2022-12-07T08:35:35;101399.78;;;6.30
37452;BMP280;23314;51.114;6.900;2022-12-07T08:38:01;101400.53;;;6.30
37452;BMP280;23314;51.114;6.900;2022-12-07T08:40:27;101402.06;;;6.32
37452;BMP280;23314;51.114;6.900;2022-12-07T08:42:53;101408.56;;;6.34
37452;BMP280;23314;51.114;6.900;2022-12-07T08:45:19;101399.97;;;6.41
37452;BMP280;23314;51.114;6.900;2022-12-07T08:50:26;101408.19;;;6.59
37452;BMP280;23314;51.114;6.900;2022-12-07T08:52:54;101410.22;;;6.66
37452;BMP280;23314;51.114;6.900;2022-12-07T08:55:21;101405.00;;;6.73
37452;BMP280;23314;51.114;6.900;2022-12-07T08:57:47;101400.16;;;6.79
37452;BMP280;23314;51.114;6.900;2022-12-07T09:00:13;101398.31;;;6.83
37452;BMP280;23314;51.114;6.900;2022-12-07T09:02:39;101393.13;;;6.90
37452;BMP280;23314;51.114;6.900;2022-12-07T09:05:04;101395.06;;;6.93
37452;BMP280;23314;51.114;6.900;2022-12-07T09:07:32;101392.84;;;6.95
37452;BMP280;23314;51.114;6.900;2022-12-07T09:09:58;101386.00;;;6.98
37452;BMP280;23314;51.114;6.900;2022-12-07T09:12:23;101390.19;;;6.99
37452;BMP280;23314;51.114;6.900;2022-12-07T09:14:49;101385.66;;;6.96
37452;BMP280;23314;51.114;6.900;2022-12-07T09:17:14;101385.94;;;6.90
37452;BMP280;23314;51.114;6.900;2022-12-07T09:19:39;101387.00;;;6.86
37452;BMP280;23314;51.114;6.900;2022-12-07T09:22:06;101390.78;;;6.85
37452;BMP280;23314;51.114;6.900;2022-12-07T09:24:32;101394.56;;;6.84
37452;BMP280;23314;51.114;6.900;2022-12-07T09:26:58;101398.69;;;6.81
37452;BMP280;23314;51.114;6.900;2022-12-07T09:29:23;101399.47;;;6.82
37452;BMP280;23314;51.114;6.900;2022-12-07T09:31:49;101398.38;;;6.86
37452;BMP280;23314;51.114;6.900;2022-12-07T09:34:14;101396.25;;;6.96
37452;BMP280;23314;51.114;6.900;2022-12-07T09:36:39;101391.84;;;7.07
37452;BMP280;23314;51.114;6.900;2022-12-07T09:39:04;101399.53;;;7.16
37452;BMP280;23314;51.114;6.900;2022-12-07T09:41:31;101391.66;;;7.23
37452;BMP280;23314;51.114;6.900;2022-12-07T09:44:09;101388.75;;;7.32
37452;BMP280;23314;51.114;6.900;2022-12-07T09:46:39;101393.84;;;7.44
37452;BMP280;23314;51.114;6.900;2022-12-07T09:49:10;101399.69;;;7.57
37452;BMP280;23314;51.114;6.900;2022-12-07T09:51:36;101395.22;;;7.65
37452;BMP280;23314;51.114;6.900;2022-12-07T09:54:02;101394.50;;;7.68
37452;BMP280;23314;51.114;6.900;2022-12-07T09:56:29;101392.59;;;7.72
37452;BMP280;23314;51.114;6.900;2022-12-07T09:59:01;101396.50;;;7.78
37452;BMP280;23314;51.114;6.900;2022-12-07T10:01:31;101392.72;;;7.79
37452;BMP280;23314;51.114;6.900;2022-12-07T10:04:13;101390.44;;;7.81
37452;BMP280;23314;51.114;6.900;2022-12-07T10:06:39;101389.72;;;7.81
37452;BMP280;23314;51.114;6.900;2022-12-07T10:09:15;101387.06;;;7.81
37452;BMP280;23314;51.114;6.900;2022-12-07T10:12:00;101388.91;;;7.77
37452;BMP280;23314;51.114;6.900;2022-12-07T10:14:28;101381.69;;;7.77
37452;BMP280;23314;51.114;6.900;2022-12-07T10:16:54;101371.47;;;7.83
37452;BMP280;23314;51.114;6.900;2022-12-07T10:19:28;101376.06;;;7.86
37452;BMP280;23314;51.114;6.900;2022-12-07T10:22:13;101369.69;;;7.91
37452;BMP280;23314;51.114;6.900;2022-12-07T10:24:39;101369.31;;;7.96
37452;BMP280;23314;51.114;6.900;2022-12-07T10:27:26;101363.66;;;7.97
37452;BMP280;23314;51.114;6.900;2022-12-07T10:29:54;101353.44;;;7.99
37452;BMP280;23314;51.114;6.900;2022-12-07T10:34:44;101353.53;;;8.10
37452;BMP280;23314;51.114;6.900;2022-12-07T10:44:45;101354.34;;;8.18
37452;BMP280;23314;51.114;6.900;2022-12-07T10:47:36;101351.34;;;8.23
37452;BMP280;23314;51.114;6.900;2022-12-07T10:50:14;101350.22;;;8.24
37452;BMP280;23314;51.114;6.900;2022-12-07T10:53:31;101347.16;;;8.26
37452;BMP280;23314;51.114;6.900;2022-12-07T10:58:48;101343.81;;;8.32
37452;BMP280;23314;51.114;6.900;2022-12-07T11:01:23;101334.72;;;8.33
37452;BMP280;23314;51.114;6.900;2022-12-07T11:04:03;101337.38;;;8.33
37452;BMP280;23314;51.114;6.900;2022-12-07T11:20:29;101310.16;;;8.55
37452;BMP280;23314;51.114;6.900;2022-12-07T11:26:00;101309.41;;;8.61
37452;BMP280;23314;51.114;6.900;2022-12-07T11:34:39;101291.53;;;8.55
37452;BMP280;23314;51.114;6.900;2022-12-07T11:37:18;101305.22;;;8.60
37452;BMP280;23314;51.114;6.900;2022-12-07T11:39:54;101293.94;;;8.78
37452;BMP280;23314;51.114;6.900;2022-12-07T11:42:22;101291.69;;;8.91
37452;BMP280;23314;51.114;6.900;2022-12-07T11:47:25;101299.72;;;8.94
37452;BMP280;23314;51.114;6.900;2022-12-07T11:49:56;101280.31;;;8.94
37452;BMP280;23314;51.114;6.900;2022-12-07T11:52:43;101284.84;;;8.86
37452;BMP280;23314;51.114;6.900;2022-12-07T11:55:30;101281.78;;;8.84
37452;BMP280;23314;51.114;6.900;2022-12-07T11:58:04;101285.19;;;8.81
37452;BMP280;23314;51.114;6.900;2022-12-07T12:00:34;101283.28;;;8.78
37452;BMP280;23314;51.114;6.900;2022-12-07T12:03:12;101273.03;;;8.76
37452;BMP280;23314;51.114;6.900;2022-12-07T12:05:39;101271.16;;;8.84
37452;BMP280;23314;51.114;6.900;2022-12-07T12:08:26;101270.41;;;8.83
37452;BMP280;23314;51.114;6.900;2022-12-07T12:11:02;101277.59;;;8.79
37452;BMP280;23314;51.114;6.900;2022-12-07T12:13:48;101263.50;;;8.79
37452;BMP280;23314;51.114;6.900;2022-12-07T12:17:01;101264.69;;;8.81
37452;BMP280;23314;51.114;6.900;2022-12-07T12:25:24;101259.81;;;9.02
37452;BMP280;23314;51.114;6.900;2022-12-07T12:27:52;101260.16;;;9.00
37452;BMP280;23314;51.114;6.900;2022-12-07T12:30:39;101255.63;;;9.01
37452;BMP280;23314;51.114;6.900;2022-12-07T12:33:22;101253.38;;;9.06
37452;BMP280;23314;51.114;6.900;2022-12-07T12:36:21;101247.66;;;9.08
37452;BMP280;23314;51.114;6.900;2022-12-07T12:44:38;101246.94;;;9.32
37452;BMP280;23314;51.114;6.900;2022-12-07T12:46:59;101235.91;;;9.38
37452;BMP280;23314;51.114;6.900;2022-12-07T12:51:51;101234.38;;;9.62
37452;BMP280;23314;51.114;6.900;2022-12-07T12:56:59;101230.97;;;9.79
37452;BMP280;23314;51.114;6.900;2022-12-07T12:59:34;101239.34;;;9.71
37452;BMP280;23314;51.114;6.900;2022-12-07T13:02:29;101226.78;;;9.68
37452;BMP280;23314;51.114;6.900;2022-12-07T13:05:03;101223.75;;;9.73
37452;BMP280;23314;51.114;6.900;2022-12-07T13:07:51;101207.34;;;9.67
37452;BMP280;23314;51.114;6.900;2022-12-07T13:23:25;101205.84;;;9.23
37452;BMP280;23314;51.114;6.900;2022-12-07T13:29:20;101204.31;;;9.07
37452;BMP280;23314;51.114;6.900;2022-12-07T13:31:50;101204.69;;;9.09
37452;BMP280;23314;51.114;6.900;2022-12-07T13:37:26;101204.69;;;9.02
37452;BMP280;23314;51.114;6.900;2022-12-07T13:39:57;101203.53;;;8.99
37452;BMP280;23314;51.114;6.900;2022-12-07T13:42:27;101201.59;;;8.93
37452;BMP280;23314;51.114;6.900;2022-12-07T13:44:54;101196.28;;;8.89
37452;BMP280;23314;51.114;6.900;2022-12-07T13:47:28;101201.97;;;8.84
37452;BMP280;23314;51.114;6.900;2022-12-07T13:49:57;101192.47;;;8.79
37452;BMP280;23314;51.114;6.900;2022-12-07T13:52:30;101185.63;;;8.82
37452;BMP280;23314;51.114;6.900;2022-12-07T13:54:58;101198.19;;;8.85
37452;BMP280;23314;51.114;6.900;2022-12-07T13:57:25;101182.59;;;8.83
37452;BMP280;23314;51.114;6.900;2022-12-07T13:59:52;101181.88;;;8.87
37452;BMP280;23314;51.114;6.900;2022-12-07T14:02:25;101176.13;;;8.88
37452;BMP280;23314;51.114;6.900;2022-12-07T14:04:51;101175.78;;;8.90
37452;BMP280;23314;51.114;6.900;2022-12-07T14:10:03;101181.09;;;8.86
37452;BMP280;23314;51.114;6.900;2022-12-07T14:12:30;101175.38;;;8.80
37452;BMP280;23314;51.114;6.900;2022-12-07T14:14:58;101175.38;;;8.77
37452;BMP280;23314;51.114;6.900;2022-12-07T14:17:26;101169.66;;;8.75
37452;BMP280;23314;51.114;6.900;2022-12-07T14:19:59;101168.50;;;8.72
37452;BMP280;23314;51.114;6.900;2022-12-07T14:22:29;101167.34;;;8.70
37452;BMP280;23314;51.114;6.900;2022-12-07T14:25:16;101164.34;;;8.67
37452;BMP280;23314;51.114;6.900;2022-12-07T14:28:09;101158.22;;;8.63
37452;BMP280;23314;51.114;6.900;2022-12-07T14:30:48;101160.13;;;8.56
37452;BMP280;23314;51.114;6.900;2022-12-07T14:33:13;101155.13;;;8.50
37452;BMP280;23314;51.114;6.900;2022-12-07T14:35:39;101155.13;;;8.43
37452;BMP280;23314;51.114;6.900;2022-12-07T14:38:05;101149.38;;;8.38
37452;BMP280;23314;51.114;6.900;2022-12-07T14:40:31;101153.22;;;8.40
37452;BMP280;23314;51.114;6.900;2022-12-07T14:43:00;101150.16;;;8.38
37452;BMP280;23314;51.114;6.900;2022-12-07T14:45:27;101149.00;;;8.32
37452;BMP280;23314;51.114;6.900;2022-12-07T14:47:52;101151.66;;;8.28
37452;BMP280;23314;51.114;6.900;2022-12-07T14:50:19;101149.31;;;8.16
37452;BMP280;23314;51.114;6.900;2022-12-07T14:52:52;101136.72;;;8.02
37452;BMP280;23314;51.114;6.900;2022-12-07T14:55:24;101133.25;;;7.91
37452;BMP280;23314;51.114;6.900;2022-12-07T14:57:50;101137.75;;;7.79
37452;BMP280;23314;51.114;6.900;2022-12-07T15:00:16;101139.56;;;7.68
37452;BMP280;23314;51.114;6.900;2022-12-07T15:02:43;101135.34;;;7.63
37452;BMP280;23314;51.114;6.900;2022-12-07T15:05:09;101132.69;;;7.63
37452;BMP280;23314;51.114;6.900;2022-12-07T15:07:34;101138.78;;;7.67
37452;BMP280;23314;51.114;6.900;2022-12-07T15:10:00;101136.50;;;7.69
37452;BMP280;23314;51.114;6.900;2022-12-07T15:12:25;101134.66;;;7.74
37452;BMP280;23314;51.114;6.900;2022-12-07T15:14:50;101125.91;;;7.73
37452;BMP280;23314;51.114;6.900;2022-12-07T15:17:15;101131.63;;;7.75
37452;BMP280;23314;51.114;6.900;2022-12-07T15:19:41;101125.91;;;7.73
37452;BMP280;23314;51.114;6.900;2022-12-07T15:22:08;101124.00;;;7.66
37452;BMP280;23314;51.114;6.900;2022-12-07T15:24:36;101122.41;;;7.58
37452;BMP280;23314;51.114;6.900;2022-12-07T15:27:01;101114.75;;;7.49
37452;BMP280;23314;51.114;6.900;2022-12-07T15:29:27;101121.56;;;7.43
37452;BMP280;23314;51.114;6.900;2022-12-07T15:31:52;101124.16;;;7.36
37452;BMP280;23314;51.114;6.900;2022-12-07T15:34:18;101125.63;;;7.30
37452;BMP280;23314;51.114;6.900;2022-12-07T15:36:43;101123.28;;;7.24
37452;BMP280;23314;51.114;6.900;2022-12-07T15:39:09;101117.22;;;7.20
37452;BMP280;23314;51.114;6.900;2022-12-07T15:41:35;101116.81;;;7.18
37452;BMP280;23314;51.114;6.900;2022-12-07T15:44:00;101108.47;;;7.16
37452;BMP280;23314;51.114;6.900;2022-12-07T15:46:44;101122.03;;;7.11
37452;BMP280;23314;51.114;6.900;2022-12-07T15:49:12;101118.59;;;7.03
37452;BMP280;23314;51.114;6.900;2022-12-07T15:51:38;101117.78;;;6.99
37452;BMP280;23314;51.114;6.900;2022-12-07T15:54:03;101121.53;;;6.95
37452;BMP280;23314;51.114;6.900;2022-12-07T15:56:29;101128.31;;;6.92
37452;BMP280;23314;51.114;6.900;2022-12-07T15:58:56;101131.34;;;6.90